Lopezville, Texas
Current Conditions -  °F | °C
As of 11:53 PM on Monday 20 Oct 2014 (Local Time) from KMFE Reporting Station
Clear Clear  
Wind Chill: 73°   Ceiling: Unl
Heat Index: 73°   Visibility: 10mi
Dew Point: 70°   Wind: 5mph
Humidity: 90%   Direction: 30°NNE
Pressure: 29.96"   Gusts: NA
Location:  26.158°N, 98.1543°W
Report Text: KMFE 210453Z AUTO 03004KT 10SM CLR 23/21 A2996 RMK AO2 SLP142 T02280211 TSNO
Loading
Personal Weather Stations






























Interactive Weather Map
Tropical Storm Tracking
New forecast layout! Learn more

10-Day Weather Forecast

Advertisements
Track Severe Weather on mobile